createdAt,value
2022-10-08T00:00:07.933Z,77.96
2022-10-08T00:03:16.890Z,77.81
2022-10-08T00:06:19.647Z,77.84
2022-10-08T00:09:21.827Z,77.76
2022-10-08T00:12:34.735Z,78.14
2022-10-08T00:15:37.187Z,77.63
2022-10-08T00:18:41.160Z,77.46
2022-10-08T00:21:44.911Z,77.79
2022-10-08T00:24:47.077Z,77.92
2022-10-08T00:27:49.186Z,77.54
2022-10-08T00:30:51.298Z,77.65
2022-10-08T00:33:56.392Z,77.03
2022-10-08T00:36:58.467Z,77.25
2022-10-08T00:40:00.520Z,76.68
2022-10-08T00:43:03.350Z,76.24
2022-10-08T00:46:05.806Z,76.79
2022-10-08T00:49:13.511Z,76.79
2022-10-08T00:52:15.924Z,77.56
2022-10-08T00:55:20.513Z,77.81
2022-10-08T00:58:23.049Z,77.52
2022-10-08T01:01:25.183Z,77.73
2022-10-08T01:04:27.271Z,78.10
2022-10-08T01:07:56.924Z,77.38
2022-10-08T01:11:19.562Z,78.10
2022-10-08T01:14:47.694Z,78.02
2022-10-08T01:18:29.286Z,78.31
2022-10-08T01:21:55.858Z,77.94
2022-10-08T01:25:34.391Z,77.93
2022-10-08T01:28:43.406Z,78.30
2022-10-08T01:32:07.691Z,78.14
2022-10-08T01:35:14.055Z,77.77
2022-10-08T01:38:17.710Z,77.62
2022-10-08T01:41:19.842Z,77.69
2022-10-08T01:44:33.288Z,77.04
2022-10-08T01:47:37.291Z,77.15
2022-10-08T01:50:46.531Z,77.24
2022-10-08T01:53:48.638Z,76.96
2022-10-08T01:56:50.727Z,77.22
2022-10-08T02:00:06.743Z,77.21
2022-10-08T02:03:14.002Z,77.10
2022-10-08T02:06:16.115Z,77.49
2022-10-08T02:09:18.432Z,77.27
2022-10-08T02:12:23.265Z,76.95
2022-10-08T02:15:33.889Z,77.27
2022-10-08T02:18:52.264Z,78.19
2022-10-08T02:21:54.371Z,78.26
2022-10-08T02:25:26.438Z,77.93
2022-10-08T02:28:46.209Z,78.39
2022-10-08T02:31:55.001Z,77.33
2022-10-08T02:35:07.481Z,76.98
2022-10-08T02:38:17.697Z,77.24
2022-10-08T02:41:27.111Z,76.32
2022-10-08T02:44:51.387Z,76.75
2022-10-08T02:47:56.716Z,76.86
2022-10-08T02:51:06.512Z,76.87
2022-10-08T02:54:08.648Z,77.17
2022-10-08T02:57:22.959Z,76.64
2022-10-08T03:00:25.012Z,76.64
2022-10-08T03:03:36.561Z,76.85
2022-10-08T03:06:38.606Z,77.91
2022-10-08T03:09:43.933Z,77.06
2022-10-08T03:12:46.305Z,77.68
2022-10-08T03:15:51.915Z,77.32
2022-10-08T03:18:54.076Z,78.13
2022-10-08T03:21:56.570Z,77.46
2022-10-08T03:24:58.677Z,77.39
2022-10-08T03:28:00.765Z,77.57
2022-10-08T03:31:06.482Z,77.96
2022-10-08T03:34:09.267Z,77.70
2022-10-08T03:37:11.319Z,78.34
2022-10-08T03:40:13.434Z,77.34
2022-10-08T03:43:15.487Z,77.60
2022-10-08T03:46:17.617Z,78.09
2022-10-08T03:49:19.861Z,77.49
2022-10-08T03:52:21.892Z,77.68
2022-10-08T03:55:23.964Z,77.17
2022-10-08T03:58:26.020Z,77.07
2022-10-08T04:01:28.476Z,78.43
2022-10-08T04:04:30.630Z,78.03
2022-10-08T04:07:32.662Z,78.26
2022-10-08T04:10:38.615Z,78.44
2022-10-08T04:13:40.894Z,78.14
2022-10-08T04:16:42.959Z,78.70
2022-10-08T04:19:44.981Z,77.98
2022-10-08T04:22:48.995Z,78.03
2022-10-08T04:25:52.082Z,78.42
2022-10-08T04:28:54.596Z,78.47
2022-10-08T04:31:56.743Z,78.52
2022-10-08T04:34:58.778Z,78.62
2022-10-08T04:38:00.830Z,78.28
2022-10-08T04:41:05.430Z,79.20
2022-10-08T04:44:07.483Z,78.74
2022-10-08T04:47:09.564Z,78.40
2022-10-08T04:50:11.618Z,78.37
2022-10-08T04:53:13.660Z,78.06
2022-10-08T04:56:27.105Z,77.73
2022-10-08T04:59:29.162Z,78.10
2022-10-08T05:02:31.358Z,78.09
2022-10-08T05:05:33.456Z,77.22
2022-10-08T05:08:35.713Z,76.98
2022-10-08T05:11:37.779Z,77.87
2022-10-08T05:14:39.967Z,77.99
2022-10-08T05:17:42.034Z,77.06
2022-10-08T05:20:44.082Z,77.76
2022-10-08T05:23:46.457Z,77.55
2022-10-08T05:27:03.957Z,77.38
2022-10-08T05:30:07.026Z,78.11
2022-10-08T05:33:09.141Z,76.82
2022-10-08T05:36:25.891Z,77.26
2022-10-08T05:39:27.978Z,77.08
2022-10-08T05:42:30.073Z,77.02
2022-10-08T05:45:32.238Z,77.79
2022-10-08T05:48:34.480Z,76.84
2022-10-08T05:51:38.565Z,77.32
2022-10-08T05:54:40.749Z,77.07
2022-10-08T05:57:42.859Z,77.84
2022-10-08T06:00:44.975Z,77.89
2022-10-08T06:04:08.136Z,78.61
2022-10-08T06:07:11.035Z,79.22
2022-10-08T06:10:13.223Z,79.71
2022-10-08T06:13:15.278Z,80.01
2022-10-08T06:16:17.604Z,79.08
2022-10-08T06:19:20.094Z,79.91
2022-10-08T06:22:22.200Z,79.36
2022-10-08T06:25:24.634Z,79.24
2022-10-08T06:28:26.771Z,79.14
2022-10-08T06:31:28.989Z,78.80
2022-10-08T06:34:31.087Z,78.67
2022-10-08T06:37:33.163Z,79.26
2022-10-08T06:40:40.132Z,78.39
2022-10-08T06:43:42.170Z,78.70
2022-10-08T06:46:44.373Z,78.82
2022-10-08T06:49:46.538Z,78.98
2022-10-08T06:52:49.445Z,79.09
2022-10-08T06:55:58.036Z,78.97
2022-10-08T06:59:00.083Z,78.59
2022-10-08T07:02:02.215Z,79.03
2022-10-08T07:05:04.881Z,78.71
2022-10-08T07:08:06.958Z,77.88
2022-10-08T07:11:14.499Z,77.61
2022-10-08T07:14:16.553Z,77.57
2022-10-08T07:17:18.588Z,76.93
2022-10-08T07:20:20.793Z,77.58
2022-10-08T07:23:22.878Z,76.25
2022-10-08T07:26:26.783Z,75.89
2022-10-08T07:29:28.905Z,76.61
2022-10-08T07:32:30.973Z,76.77
2022-10-08T07:35:33.050Z,77.35
2022-10-08T07:38:35.249Z,76.16
2022-10-08T07:41:37.466Z,76.53
2022-10-08T07:44:39.537Z,75.85
2022-10-08T07:47:41.623Z,75.78
2022-10-08T07:50:43.711Z,75.72
2022-10-08T07:53:45.845Z,75.45
2022-10-08T07:56:48.039Z,75.41
2022-10-08T07:59:50.083Z,74.71
2022-10-08T08:02:52.157Z,74.20
2022-10-08T08:05:54.445Z,73.52
2022-10-08T08:08:56.890Z,73.79
2022-10-08T08:11:58.924Z,72.98
2022-10-08T08:15:00.979Z,72.69
2022-10-08T08:18:03.030Z,72.31
2022-10-08T08:21:10.553Z,72.82
2022-10-08T08:24:13.370Z,72.04
2022-10-08T08:27:15.497Z,72.41
2022-10-08T08:30:17.583Z,71.13
2022-10-08T08:33:19.643Z,71.88
2022-10-08T08:36:26.177Z,71.06
2022-10-08T08:39:28.561Z,70.29
2022-10-08T08:42:55.358Z,71.02
2022-10-08T08:45:57.559Z,71.21
2022-10-08T08:49:02.779Z,70.51
2022-10-08T08:52:04.889Z,69.83
2022-10-08T08:55:34.814Z,70.43
2022-10-08T08:58:47.711Z,68.99
2022-10-08T09:01:49.812Z,68.85
2022-10-08T09:05:01.179Z,67.51
2022-10-08T09:08:21.588Z,68.02
2022-10-08T09:11:24.221Z,67.09
2022-10-08T09:14:37.625Z,67.76
2022-10-08T09:17:39.995Z,67.97
2022-10-08T09:20:42.170Z,66.70
2022-10-08T09:23:44.573Z,65.68
2022-10-08T09:26:46.658Z,64.34
2022-10-08T09:29:50.879Z,65.14
2022-10-08T09:32:54.223Z,64.42
2022-10-08T09:35:56.303Z,64.88
2022-10-08T09:38:59.354Z,64.09
2022-10-08T09:42:07.408Z,63.54
2022-10-08T09:45:35.233Z,62.33
2022-10-08T09:48:37.711Z,62.83
2022-10-08T09:51:42.233Z,62.61
2022-10-08T09:54:50.746Z,60.09
2022-10-08T09:58:00.306Z,62.07
2022-10-08T10:01:12.729Z,61.14
2022-10-08T10:04:40.592Z,60.38
2022-10-08T10:07:44.954Z,59.81
2022-10-08T10:10:48.586Z,60.39
2022-10-08T10:13:51.096Z,60.57
2022-10-08T10:17:02.810Z,59.76
2022-10-08T10:20:27.950Z,60.53
2022-10-08T10:23:37.047Z,60.64
2022-10-08T10:26:41.573Z,61.56
2022-10-08T10:30:21.932Z,61.68
2022-10-08T10:33:27.054Z,61.51
2022-10-08T10:36:35.406Z,57.67
2022-10-08T10:40:00.025Z,58.86
2022-10-08T10:43:35.295Z,57.48
2022-10-08T10:46:40.154Z,57.64
2022-10-08T10:49:42.560Z,57.65
2022-10-08T10:53:10.223Z,57.18
2022-10-08T10:56:18.412Z,56.24
2022-10-08T10:59:48.887Z,56.32
2022-10-08T11:03:12.990Z,56.19
2022-10-08T11:06:49.211Z,55.91
2022-10-08T11:09:57.683Z,58.51
2022-10-08T11:13:36.954Z,56.34
2022-10-08T11:16:54.173Z,57.45
2022-10-08T11:20:24.733Z,56.36
2022-10-08T11:23:54.215Z,55.98
2022-10-08T11:27:11.416Z,53.40
2022-10-08T11:30:33.468Z,54.94
2022-10-08T11:33:36.563Z,56.05
2022-10-08T11:36:48.114Z,55.27
2022-10-08T11:40:03.365Z,56.49
2022-10-08T11:43:41.056Z,54.15
2022-10-08T11:46:43.181Z,54.11
2022-10-08T11:49:52.692Z,55.52
2022-10-08T11:53:20.325Z,55.02
2022-10-08T11:56:22.367Z,57.04
2022-10-08T11:59:47.958Z,52.86
2022-10-08T12:02:54.005Z,53.37
2022-10-08T12:06:17.015Z,54.65
2022-10-08T12:09:23.446Z,53.06
2022-10-08T12:12:25.543Z,52.79
2022-10-08T12:15:27.876Z,52.58
2022-10-08T12:18:30.826Z,51.75
2022-10-08T12:21:36.002Z,51.77
2022-10-08T12:24:37.954Z,52.57
2022-10-08T12:27:41.205Z,53.46
2022-10-08T12:30:54.253Z,54.80
2022-10-08T12:34:02.736Z,53.86
2022-10-08T12:37:36.707Z,52.17
2022-10-08T12:40:56.641Z,51.61
2022-10-08T12:44:33.950Z,51.02
2022-10-08T12:47:49.838Z,48.11
2022-10-08T12:51:22.504Z,48.66
2022-10-08T12:54:26.310Z,49.46
2022-10-08T12:57:39.251Z,48.08
2022-10-08T13:00:41.335Z,48.23
2022-10-08T13:03:43.411Z,48.20
2022-10-08T13:06:46.562Z,47.55
2022-10-08T13:09:48.643Z,48.14
2022-10-08T13:13:35.823Z,47.59
2022-10-08T13:16:47.279Z,48.30
2022-10-08T13:19:49.372Z,48.79
2022-10-08T13:22:51.478Z,48.30
2022-10-08T13:25:53.562Z,48.20
2022-10-08T13:29:23.561Z,47.81
2022-10-08T13:32:39.550Z,54.78
2022-10-08T13:35:42.259Z,55.85
2022-10-08T13:38:45.824Z,57.02
2022-10-08T13:41:57.020Z,54.25
2022-10-08T13:45:00.642Z,56.42
2022-10-08T13:48:02.735Z,57.10
2022-10-08T13:51:05.147Z,58.36
2022-10-08T13:54:07.223Z,58.24
2022-10-08T13:57:10.065Z,58.88
2022-10-08T14:00:15.759Z,57.62
2022-10-08T14:03:17.878Z,57.58
2022-10-08T14:06:19.982Z,57.40
2022-10-08T14:09:25.528Z,55.98
2022-10-08T14:12:30.840Z,56.06
2022-10-08T14:15:32.915Z,55.44
2022-10-08T14:18:34.952Z,54.03
2022-10-08T14:21:37.965Z,44.51
2022-10-08T14:24:40.122Z,50.14
2022-10-08T14:27:42.186Z,50.73
2022-10-08T14:30:44.251Z,53.20
2022-10-08T14:33:46.583Z,50.06
2022-10-08T14:36:50.155Z,49.73
2022-10-08T14:39:52.195Z,56.02
2022-10-08T14:42:54.291Z,57.37
2022-10-08T14:45:56.395Z,58.16
2022-10-08T14:48:58.647Z,57.46
2022-10-08T14:52:00.700Z,58.38
2022-10-08T14:55:02.948Z,55.30
2022-10-08T14:58:04.982Z,56.84
2022-10-08T15:01:07.202Z,53.18
2022-10-08T15:04:12.687Z,52.27
2022-10-08T15:07:14.758Z,51.06
2022-10-08T15:10:16.816Z,54.57
2022-10-08T15:13:18.896Z,53.53
2022-10-08T15:16:21.099Z,50.22
2022-10-08T15:19:24.165Z,50.07
2022-10-08T15:22:26.302Z,50.68
2022-10-08T15:25:28.454Z,46.38
2022-10-08T15:28:30.705Z,54.79
2022-10-08T15:31:32.897Z,56.12
2022-10-08T15:34:35.015Z,56.80
2022-10-08T15:37:37.340Z,57.37
2022-10-08T15:40:39.455Z,57.80
2022-10-08T15:43:42.019Z,57.22
2022-10-08T15:46:48.087Z,54.86
2022-10-08T15:49:50.158Z,54.87
2022-10-08T15:52:52.789Z,48.46
2022-10-08T15:55:56.526Z,48.16
2022-10-08T15:58:59.505Z,48.23
2022-10-08T16:02:01.666Z,53.90
2022-10-08T16:05:04.276Z,54.41
2022-10-08T16:08:09.275Z,47.22
2022-10-08T16:11:18.342Z,57.30
2022-10-08T16:14:23.327Z,59.80
2022-10-08T16:17:26.865Z,54.53
2022-10-08T16:20:28.918Z,52.46
2022-10-08T16:23:33.578Z,55.19
2022-10-08T16:26:35.819Z,57.58
2022-10-08T16:29:37.888Z,59.42
2022-10-08T16:32:39.983Z,58.13
2022-10-08T16:35:43.547Z,57.91
2022-10-08T16:38:45.591Z,56.33
2022-10-08T16:41:47.920Z,60.95
2022-10-08T16:44:50.229Z,62.62
2022-10-08T16:47:52.305Z,66.46
2022-10-08T16:50:54.359Z,66.83
2022-10-08T16:53:58.190Z,67.64
2022-10-08T16:57:00.396Z,68.00
2022-10-08T17:00:02.635Z,67.60
2022-10-08T17:03:04.832Z,66.58
2022-10-08T17:06:07.139Z,67.29
2022-10-08T17:09:09.204Z,67.32
2022-10-08T17:12:11.272Z,66.85
2022-10-08T17:15:13.352Z,66.55
2022-10-08T17:18:15.425Z,66.89
2022-10-08T17:21:17.544Z,68.27
2022-10-08T17:24:19.747Z,68.76
2022-10-08T17:27:21.834Z,69.31
2022-10-08T17:30:24.026Z,69.87
2022-10-08T17:33:27.235Z,70.55
2022-10-08T17:36:31.686Z,70.24
2022-10-08T17:39:33.729Z,69.49
2022-10-08T17:42:35.793Z,68.87
2022-10-08T17:45:37.890Z,68.80
2022-10-08T17:48:40.327Z,70.00
2022-10-08T17:51:42.564Z,69.05
2022-10-08T17:54:44.786Z,67.17
2022-10-08T17:57:46.820Z,67.54
2022-10-08T18:00:48.939Z,68.20
2022-10-08T18:03:53.478Z,67.91
2022-10-08T18:06:58.654Z,67.38
2022-10-08T18:10:06.011Z,68.53
2022-10-08T18:13:08.168Z,67.93
2022-10-08T18:16:15.239Z,67.21
2022-10-08T18:19:17.901Z,67.05
2022-10-08T18:22:22.113Z,67.74
2022-10-08T18:25:24.507Z,67.41
2022-10-08T18:28:26.589Z,67.87
2022-10-08T18:31:31.255Z,68.08
2022-10-08T18:34:33.395Z,68.43
2022-10-08T18:37:35.478Z,67.59
2022-10-08T18:40:37.607Z,68.91
2022-10-08T18:43:39.720Z,69.33
2022-10-08T18:46:44.748Z,69.52
2022-10-08T18:49:46.945Z,70.19
2022-10-08T18:52:49.496Z,69.48
2022-10-08T18:55:52.607Z,69.72
2022-10-08T18:59:02.649Z,70.35
2022-10-08T19:02:04.839Z,72.41
2022-10-08T19:05:07.549Z,72.13
2022-10-08T19:08:09.656Z,72.87
2022-10-08T19:11:23.098Z,73.33
2022-10-08T19:14:25.405Z,73.99
2022-10-08T19:17:27.539Z,74.23
2022-10-08T19:20:29.669Z,73.68
2022-10-08T19:23:31.764Z,73.25
2022-10-08T19:26:33.928Z,73.44
2022-10-08T19:29:36.406Z,73.02
2022-10-08T19:32:38.540Z,73.57
2022-10-08T19:35:41.804Z,73.22
2022-10-08T19:38:44.041Z,73.33
2022-10-08T19:41:46.551Z,72.16
2022-10-08T19:44:48.679Z,70.49
2022-10-08T19:47:50.734Z,71.22
2022-10-08T19:50:52.832Z,69.43
2022-10-08T19:53:55.206Z,71.41
2022-10-08T19:56:57.339Z,71.45
2022-10-08T19:59:59.482Z,70.91
2022-10-08T20:03:01.672Z,69.86
2022-10-08T20:06:05.387Z,69.61
2022-10-08T20:09:11.782Z,69.50
2022-10-08T20:12:13.909Z,69.95
2022-10-08T20:15:16.126Z,70.55
2022-10-08T20:18:18.210Z,71.54
2022-10-08T20:21:20.819Z,71.23
2022-10-08T20:24:23.008Z,72.06
2022-10-08T20:27:25.251Z,71.47
2022-10-08T20:30:27.361Z,71.28
2022-10-08T20:33:29.449Z,69.98
2022-10-08T20:36:36.651Z,70.38
2022-10-08T20:39:39.030Z,70.24
2022-10-08T20:42:41.141Z,72.00
2022-10-08T20:45:43.262Z,72.31
2022-10-08T20:48:45.933Z,72.28
2022-10-08T20:51:48.087Z,72.61
2022-10-08T20:54:50.182Z,73.13
2022-10-08T20:57:52.266Z,72.24
2022-10-08T21:00:54.390Z,72.89
2022-10-08T21:03:56.723Z,73.88
2022-10-08T21:06:58.871Z,74.25
2022-10-08T21:10:01.065Z,73.03
2022-10-08T21:13:04.211Z,73.94
2022-10-08T21:16:17.978Z,72.65
2022-10-08T21:19:22.115Z,73.44
2022-10-08T21:22:24.346Z,74.95
2022-10-08T21:25:26.435Z,74.69
2022-10-08T21:28:28.550Z,74.74
2022-10-08T21:31:31.979Z,74.98
2022-10-08T21:34:34.099Z,75.23
2022-10-08T21:37:36.187Z,74.65
2022-10-08T21:40:38.239Z,75.06
2022-10-08T21:43:42.239Z,75.64
2022-10-08T21:46:44.541Z,75.16
2022-10-08T21:49:46.631Z,74.84
2022-10-08T21:52:48.982Z,74.46
2022-10-08T21:55:56.805Z,74.51
2022-10-08T21:59:00.619Z,75.02
2022-10-08T22:02:03.309Z,73.30
2022-10-08T22:05:05.806Z,73.77
2022-10-08T22:08:07.865Z,73.03
2022-10-08T22:11:09.941Z,72.54
2022-10-08T22:14:12.068Z,73.95
2022-10-08T22:17:14.111Z,75.85
2022-10-08T22:20:16.411Z,76.07
2022-10-08T22:23:18.784Z,76.47
2022-10-08T22:26:38.154Z,78.03
2022-10-08T22:29:40.203Z,76.32
2022-10-08T22:32:42.229Z,76.88
2022-10-08T22:35:44.456Z,76.44
2022-10-08T22:38:46.866Z,76.07
2022-10-08T22:41:49.009Z,75.45
2022-10-08T22:44:51.036Z,74.65
2022-10-08T22:47:53.075Z,74.21
2022-10-08T22:50:55.112Z,74.24
2022-10-08T22:53:57.348Z,74.01
2022-10-08T22:56:59.409Z,74.13
2022-10-08T23:00:01.482Z,76.07
2022-10-08T23:03:03.650Z,77.48
2022-10-08T23:06:14.831Z,77.01
2022-10-08T23:09:16.878Z,76.64
2022-10-08T23:12:18.977Z,76.35
2022-10-08T23:15:21.618Z,76.20
2022-10-08T23:18:23.654Z,76.52
2022-10-08T23:21:25.891Z,76.02
2022-10-08T23:24:28.010Z,75.72
2022-10-08T23:27:30.086Z,76.21
2022-10-08T23:33:53.553Z,76.96
2022-10-08T23:36:55.627Z,75.01
2022-10-08T23:39:58.118Z,77.10
2022-10-08T23:43:00.201Z,77.88
2022-10-08T23:46:03.064Z,77.03
2022-10-08T23:49:05.158Z,76.23
2022-10-08T23:52:07.203Z,75.69
2022-10-08T23:55:09.746Z,76.59
2022-10-08T23:58:11.978Z,76.45
